sensor_id;sensor_type;location;lat;lon;timestamp;P1;durP1;ratioP1;P2;durP2;ratioP2
15155;SDS011;7678;50.058;8.306;2023-04-24T00:01:07;4.60;;;1.50;;
15155;SDS011;7678;50.058;8.306;2023-04-24T00:03:36;1.90;;;1.33;;
15155;SDS011;7678;50.058;8.306;2023-04-24T00:06:05;2.47;;;1.23;;
15155;SDS011;7678;50.058;8.306;2023-04-24T00:08:34;1.63;;;1.17;;
15155;SDS011;7678;50.058;8.306;2023-04-24T00:11:02;4.07;;;1.50;;
15155;SDS011;7678;50.058;8.306;2023-04-24T00:13:30;2.33;;;1.40;;
15155;SDS011;7678;50.058;8.306;2023-04-24T00:16:01;3.87;;;1.50;;
15155;SDS011;7678;50.058;8.306;2023-04-24T00:18:31;3.27;;;1.20;;
15155;SDS011;7678;50.058;8.306;2023-04-24T00:21:00;2.17;;;1.37;;
15155;SDS011;7678;50.058;8.306;2023-04-24T00:23:29;2.43;;;1.30;;
15155;SDS011;7678;50.058;8.306;2023-04-24T00:25:58;4.37;;;1.60;;
15155;SDS011;7678;50.058;8.306;2023-04-24T00:28:28;2.77;;;1.40;;
15155;SDS011;7678;50.058;8.306;2023-04-24T00:30:57;2.53;;;1.37;;
15155;SDS011;7678;50.058;8.306;2023-04-24T00:33:25;2.43;;;1.40;;
15155;SDS011;7678;50.058;8.306;2023-04-24T00:35:54;2.10;;;1.20;;
15155;SDS011;7678;50.058;8.306;2023-04-24T00:38:23;3.00;;;1.00;;
15155;SDS011;7678;50.058;8.306;2023-04-24T00:40:52;3.00;;;1.40;;
15155;SDS011;7678;50.058;8.306;2023-04-24T00:43:21;3.77;;;1.33;;
15155;SDS011;7678;50.058;8.306;2023-04-24T00:45:49;1.53;;;1.10;;
15155;SDS011;7678;50.058;8.306;2023-04-24T00:48:17;1.70;;;1.23;;
15155;SDS011;7678;50.058;8.306;2023-04-24T00:50:46;2.07;;;1.17;;
15155;SDS011;7678;50.058;8.306;2023-04-24T00:53:15;2.23;;;1.10;;
15155;SDS011;7678;50.058;8.306;2023-04-24T00:55:44;3.27;;;1.30;;
15155;SDS011;7678;50.058;8.306;2023-04-24T00:58:12;1.67;;;1.17;;
15155;SDS011;7678;50.058;8.306;2023-04-24T01:00:40;4.27;;;1.37;;
15155;SDS011;7678;50.058;8.306;2023-04-24T01:03:09;4.50;;;1.50;;
15155;SDS011;7678;50.058;8.306;2023-04-24T01:05:39;1.87;;;1.30;;
15155;SDS011;7678;50.058;8.306;2023-04-24T01:08:08;5.50;;;1.57;;
15155;SDS011;7678;50.058;8.306;2023-04-24T01:10:37;2.27;;;1.20;;
15155;SDS011;7678;50.058;8.306;2023-04-24T01:13:08;2.57;;;1.30;;
15155;SDS011;7678;50.058;8.306;2023-04-24T01:15:36;2.33;;;1.30;;
15155;SDS011;7678;50.058;8.306;2023-04-24T01:18:04;3.43;;;1.40;;
15155;SDS011;7678;50.058;8.306;2023-04-24T01:20:33;3.37;;;1.13;;
15155;SDS011;7678;50.058;8.306;2023-04-24T01:23:04;3.93;;;1.40;;
15155;SDS011;7678;50.058;8.306;2023-04-24T01:25:32;3.53;;;1.30;;
15155;SDS011;7678;50.058;8.306;2023-04-24T01:28:00;3.40;;;1.40;;
15155;SDS011;7678;50.058;8.306;2023-04-24T01:30:31;4.43;;;1.43;;
15155;SDS011;7678;50.058;8.306;2023-04-24T01:32:59;3.30;;;1.30;;
15155;SDS011;7678;50.058;8.306;2023-04-24T01:35:27;2.80;;;1.30;;
15155;SDS011;7678;50.058;8.306;2023-04-24T01:37:55;5.23;;;1.67;;
15155;SDS011;7678;50.058;8.306;2023-04-24T01:40:26;3.47;;;1.40;;
15155;SDS011;7678;50.058;8.306;2023-04-24T01:42:54;5.23;;;1.90;;
15155;SDS011;7678;50.058;8.306;2023-04-24T01:45:22;4.63;;;1.60;;
15155;SDS011;7678;50.058;8.306;2023-04-24T01:47:51;3.67;;;1.40;;
15155;SDS011;7678;50.058;8.306;2023-04-24T01:50:20;4.90;;;1.37;;
15155;SDS011;7678;50.058;8.306;2023-04-24T01:52:47;4.97;;;1.47;;
15155;SDS011;7678;50.058;8.306;2023-04-24T01:55:15;4.20;;;1.60;;
15155;SDS011;7678;50.058;8.306;2023-04-24T01:57:45;4.43;;;1.53;;
15155;SDS011;7678;50.058;8.306;2023-04-24T02:00:13;3.17;;;1.50;;
15155;SDS011;7678;50.058;8.306;2023-04-24T02:02:41;2.07;;;1.20;;
15155;SDS011;7678;50.058;8.306;2023-04-24T02:05:13;4.77;;;1.47;;
15155;SDS011;7678;50.058;8.306;2023-04-24T02:07:42;4.23;;;1.43;;
15155;SDS011;7678;50.058;8.306;2023-04-24T02:10:10;2.90;;;1.20;;
15155;SDS011;7678;50.058;8.306;2023-04-24T02:12:38;5.07;;;1.60;;
15155;SDS011;7678;50.058;8.306;2023-04-24T02:15:08;2.17;;;1.30;;
15155;SDS011;7678;50.058;8.306;2023-04-24T02:17:37;3.20;;;1.40;;
15155;SDS011;7678;50.058;8.306;2023-04-24T02:20:06;3.80;;;1.37;;
15155;SDS011;7678;50.058;8.306;2023-04-24T02:22:35;1.70;;;1.23;;
15155;SDS011;7678;50.058;8.306;2023-04-24T02:25:03;2.33;;;1.30;;
15155;SDS011;7678;50.058;8.306;2023-04-24T02:27:32;4.00;;;1.50;;
15155;SDS011;7678;50.058;8.306;2023-04-24T02:30:00;5.10;;;1.30;;
15155;SDS011;7678;50.058;8.306;2023-04-24T02:32:32;2.63;;;1.50;;
15155;SDS011;7678;50.058;8.306;2023-04-24T02:35:01;3.57;;;1.50;;
15155;SDS011;7678;50.058;8.306;2023-04-24T02:37:29;2.80;;;1.40;;
15155;SDS011;7678;50.058;8.306;2023-04-24T02:39:57;6.17;;;1.40;;
15155;SDS011;7678;50.058;8.306;2023-04-24T02:42:25;3.87;;;1.40;;
15155;SDS011;7678;50.058;8.306;2023-04-24T02:44:53;2.40;;;1.20;;
15155;SDS011;7678;50.058;8.306;2023-04-24T02:47:21;5.10;;;1.40;;
15155;SDS011;7678;50.058;8.306;2023-04-24T02:49:51;3.87;;;1.40;;
15155;SDS011;7678;50.058;8.306;2023-04-24T02:52:20;3.03;;;1.10;;
15155;SDS011;7678;50.058;8.306;2023-04-24T02:54:48;1.87;;;1.40;;
15155;SDS011;7678;50.058;8.306;2023-04-24T02:57:16;2.33;;;1.40;;
15155;SDS011;7678;50.058;8.306;2023-04-24T02:59:49;3.70;;;1.40;;
15155;SDS011;7678;50.058;8.306;2023-04-24T03:02:17;6.13;;;2.20;;
15155;SDS011;7678;50.058;8.306;2023-04-24T03:04:46;3.17;;;1.40;;
15155;SDS011;7678;50.058;8.306;2023-04-24T03:07:16;3.33;;;1.80;;
15155;SDS011;7678;50.058;8.306;2023-04-24T03:09:47;2.47;;;1.53;;
15155;SDS011;7678;50.058;8.306;2023-04-24T03:12:15;2.57;;;1.40;;
15155;SDS011;7678;50.058;8.306;2023-04-24T03:14:44;4.03;;;2.20;;
15155;SDS011;7678;50.058;8.306;2023-04-24T03:17:12;3.97;;;1.70;;
15155;SDS011;7678;50.058;8.306;2023-04-24T03:19:40;3.80;;;1.83;;
15155;SDS011;7678;50.058;8.306;2023-04-24T03:22:08;4.47;;;1.63;;
15155;SDS011;7678;50.058;8.306;2023-04-24T03:24:38;4.30;;;1.53;;
15155;SDS011;7678;50.058;8.306;2023-04-24T03:27:07;2.00;;;1.30;;
15155;SDS011;7678;50.058;8.306;2023-04-24T03:29:35;2.17;;;1.60;;
15155;SDS011;7678;50.058;8.306;2023-04-24T03:32:03;2.53;;;1.57;;
15155;SDS011;7678;50.058;8.306;2023-04-24T03:34:32;3.70;;;1.53;;
15155;SDS011;7678;50.058;8.306;2023-04-24T03:37:00;2.77;;;1.47;;
15155;SDS011;7678;50.058;8.306;2023-04-24T03:39:28;2.83;;;1.47;;
15155;SDS011;7678;50.058;8.306;2023-04-24T03:41:57;1.90;;;1.37;;
15155;SDS011;7678;50.058;8.306;2023-04-24T03:44:26;2.70;;;1.20;;
15155;SDS011;7678;50.058;8.306;2023-04-24T03:46:54;1.57;;;1.30;;
15155;SDS011;7678;50.058;8.306;2023-04-24T03:49:22;5.23;;;1.50;;
15155;SDS011;7678;50.058;8.306;2023-04-24T03:51:51;3.73;;;1.40;;
15155;SDS011;7678;50.058;8.306;2023-04-24T03:54:19;2.40;;;1.30;;
15155;SDS011;7678;50.058;8.306;2023-04-24T03:56:47;2.17;;;1.40;;
15155;SDS011;7678;50.058;8.306;2023-04-24T03:59:17;2.93;;;1.67;;
15155;SDS011;7678;50.058;8.306;2023-04-24T04:01:45;1.73;;;1.33;;
15155;SDS011;7678;50.058;8.306;2023-04-24T04:04:13;2.10;;;1.43;;
15155;SDS011;7678;50.058;8.306;2023-04-24T04:06:41;1.97;;;1.40;;
15155;SDS011;7678;50.058;8.306;2023-04-24T04:09:10;4.70;;;1.63;;
15155;SDS011;7678;50.058;8.306;2023-04-24T04:11:40;2.20;;;1.87;;
15155;SDS011;7678;50.058;8.306;2023-04-24T04:14:08;5.23;;;1.70;;
15155;SDS011;7678;50.058;8.306;2023-04-24T04:16:37;4.60;;;1.50;;
15155;SDS011;7678;50.058;8.306;2023-04-24T04:19:06;2.40;;;1.70;;
15155;SDS011;7678;50.058;8.306;2023-04-24T04:21:34;2.30;;;1.40;;
15155;SDS011;7678;50.058;8.306;2023-04-24T04:24:02;2.13;;;1.70;;
15155;SDS011;7678;50.058;8.306;2023-04-24T04:26:31;2.33;;;1.40;;
15155;SDS011;7678;50.058;8.306;2023-04-24T04:29:00;1.70;;;1.50;;
15155;SDS011;7678;50.058;8.306;2023-04-24T04:31:29;2.97;;;1.43;;
15155;SDS011;7678;50.058;8.306;2023-04-24T04:33:59;3.03;;;1.70;;
15155;SDS011;7678;50.058;8.306;2023-04-24T04:36:28;3.03;;;2.10;;
15155;SDS011;7678;50.058;8.306;2023-04-24T04:38:56;2.80;;;1.90;;
15155;SDS011;7678;50.058;8.306;2023-04-24T04:41:25;3.97;;;1.87;;
15155;SDS011;7678;50.058;8.306;2023-04-24T04:43:54;4.17;;;2.30;;
15155;SDS011;7678;50.058;8.306;2023-04-24T04:46:24;4.47;;;2.30;;
15155;SDS011;7678;50.058;8.306;2023-04-24T04:48:53;3.47;;;2.60;;
15155;SDS011;7678;50.058;8.306;2023-04-24T04:51:24;4.07;;;2.20;;
15155;SDS011;7678;50.058;8.306;2023-04-24T04:53:52;5.73;;;2.67;;
15155;SDS011;7678;50.058;8.306;2023-04-24T04:56:20;3.60;;;2.77;;
15155;SDS011;7678;50.058;8.306;2023-04-24T04:58:48;2.50;;;2.30;;
15155;SDS011;7678;50.058;8.306;2023-04-24T05:01:16;3.07;;;2.17;;
15155;SDS011;7678;50.058;8.306;2023-04-24T05:03:44;4.70;;;2.40;;
15155;SDS011;7678;50.058;8.306;2023-04-24T05:06:12;3.70;;;2.67;;
15155;SDS011;7678;50.058;8.306;2023-04-24T05:08:42;5.30;;;2.83;;
15155;SDS011;7678;50.058;8.306;2023-04-24T05:11:11;3.03;;;2.70;;
15155;SDS011;7678;50.058;8.306;2023-04-24T05:13:39;3.57;;;3.13;;
15155;SDS011;7678;50.058;8.306;2023-04-24T05:16:07;4.00;;;3.10;;
15155;SDS011;7678;50.058;8.306;2023-04-24T05:18:35;5.13;;;2.80;;
15155;SDS011;7678;50.058;8.306;2023-04-24T05:21:03;7.00;;;2.87;;
15155;SDS011;7678;50.058;8.306;2023-04-24T05:23:31;4.27;;;2.30;;
15155;SDS011;7678;50.058;8.306;2023-04-24T05:26:00;4.77;;;2.70;;
15155;SDS011;7678;50.058;8.306;2023-04-24T05:28:33;4.07;;;2.70;;
15155;SDS011;7678;50.058;8.306;2023-04-24T05:31:03;3.87;;;2.90;;
15155;SDS011;7678;50.058;8.306;2023-04-24T05:33:31;5.00;;;3.27;;
15155;SDS011;7678;50.058;8.306;2023-04-24T05:35:59;5.63;;;3.13;;
15155;SDS011;7678;50.058;8.306;2023-04-24T05:38:27;2.97;;;2.40;;
15155;SDS011;7678;50.058;8.306;2023-04-24T05:40:55;3.17;;;2.73;;
15155;SDS011;7678;50.058;8.306;2023-04-24T05:43:25;4.20;;;3.13;;
15155;SDS011;7678;50.058;8.306;2023-04-24T05:45:53;7.40;;;3.30;;
15155;SDS011;7678;50.058;8.306;2023-04-24T05:48:23;4.27;;;3.60;;
15155;SDS011;7678;50.058;8.306;2023-04-24T05:50:52;5.63;;;3.77;;
15155;SDS011;7678;50.058;8.306;2023-04-24T05:53:20;5.20;;;3.03;;
15155;SDS011;7678;50.058;8.306;2023-04-24T05:55:48;5.63;;;3.37;;
15155;SDS011;7678;50.058;8.306;2023-04-24T05:58:16;4.60;;;3.13;;
15155;SDS011;7678;50.058;8.306;2023-04-24T06:00:45;3.30;;;3.00;;
15155;SDS011;7678;50.058;8.306;2023-04-24T06:03:14;4.23;;;3.20;;
15155;SDS011;7678;50.058;8.306;2023-04-24T06:05:42;4.93;;;3.40;;
15155;SDS011;7678;50.058;8.306;2023-04-24T06:08:11;6.27;;;3.37;;
15155;SDS011;7678;50.058;8.306;2023-04-24T06:10:39;4.53;;;3.13;;
15155;SDS011;7678;50.058;8.306;2023-04-24T06:13:07;6.33;;;3.40;;
15155;SDS011;7678;50.058;8.306;2023-04-24T06:15:36;4.40;;;3.43;;
15155;SDS011;7678;50.058;8.306;2023-04-24T06:18:05;7.60;;;3.70;;
15155;SDS011;7678;50.058;8.306;2023-04-24T06:20:33;4.03;;;3.27;;
15155;SDS011;7678;50.058;8.306;2023-04-24T06:23:02;3.60;;;3.30;;
15155;SDS011;7678;50.058;8.306;2023-04-24T06:25:29;6.70;;;3.30;;
15155;SDS011;7678;50.058;8.306;2023-04-24T06:27:58;5.13;;;3.13;;
15155;SDS011;7678;50.058;8.306;2023-04-24T06:30:26;5.87;;;2.90;;
15155;SDS011;7678;50.058;8.306;2023-04-24T06:32:54;5.53;;;3.23;;
15155;SDS011;7678;50.058;8.306;2023-04-24T06:35:32;4.00;;;2.50;;
15155;SDS011;7678;50.058;8.306;2023-04-24T06:38:00;6.10;;;3.20;;
15155;SDS011;7678;50.058;8.306;2023-04-24T06:40:29;5.53;;;3.27;;
15155;SDS011;7678;50.058;8.306;2023-04-24T06:42:57;3.07;;;2.47;;
15155;SDS011;7678;50.058;8.306;2023-04-24T06:45:26;5.87;;;2.60;;
15155;SDS011;7678;50.058;8.306;2023-04-24T06:47:54;5.87;;;2.70;;
15155;SDS011;7678;50.058;8.306;2023-04-24T06:50:24;4.10;;;3.17;;
15155;SDS011;7678;50.058;8.306;2023-04-24T06:52:54;3.90;;;2.53;;
15155;SDS011;7678;50.058;8.306;2023-04-24T06:55:22;3.37;;;2.57;;
15155;SDS011;7678;50.058;8.306;2023-04-24T06:57:50;3.60;;;2.97;;
15155;SDS011;7678;50.058;8.306;2023-04-24T07:00:18;3.13;;;2.70;;
15155;SDS011;7678;50.058;8.306;2023-04-24T07:02:47;4.67;;;2.53;;
15155;SDS011;7678;50.058;8.306;2023-04-24T07:05:15;4.63;;;2.53;;
15155;SDS011;7678;50.058;8.306;2023-04-24T07:07:46;4.60;;;2.87;;
15155;SDS011;7678;50.058;8.306;2023-04-24T07:10:17;4.37;;;2.43;;
15155;SDS011;7678;50.058;8.306;2023-04-24T07:12:46;3.60;;;2.83;;
15155;SDS011;7678;50.058;8.306;2023-04-24T07:15:14;5.40;;;2.90;;
15155;SDS011;7678;50.058;8.306;2023-04-24T07:17:42;4.53;;;2.67;;
15155;SDS011;7678;50.058;8.306;2023-04-24T07:20:11;4.23;;;2.80;;
15155;SDS011;7678;50.058;8.306;2023-04-24T07:22:41;2.60;;;2.40;;
15155;SDS011;7678;50.058;8.306;2023-04-24T07:25:09;4.13;;;2.87;;
15155;SDS011;7678;50.058;8.306;2023-04-24T07:27:39;4.87;;;2.50;;
15155;SDS011;7678;50.058;8.306;2023-04-24T07:30:08;5.33;;;2.67;;
15155;SDS011;7678;50.058;8.306;2023-04-24T07:32:36;2.87;;;2.30;;
15155;SDS011;7678;50.058;8.306;2023-04-24T07:35:05;5.70;;;2.47;;
15155;SDS011;7678;50.058;8.306;2023-04-24T07:37:35;5.40;;;2.80;;
15155;SDS011;7678;50.058;8.306;2023-04-24T07:40:04;5.67;;;2.93;;
15155;SDS011;7678;50.058;8.306;2023-04-24T07:42:33;4.60;;;2.63;;
15155;SDS011;7678;50.058;8.306;2023-04-24T07:45:05;4.77;;;2.60;;
15155;SDS011;7678;50.058;8.306;2023-04-24T07:47:33;5.07;;;2.67;;
15155;SDS011;7678;50.058;8.306;2023-04-24T07:50:03;3.80;;;2.60;;
15155;SDS011;7678;50.058;8.306;2023-04-24T07:52:31;9.83;;;3.07;;
15155;SDS011;7678;50.058;8.306;2023-04-24T07:54:59;4.63;;;2.57;;
15155;SDS011;7678;50.058;8.306;2023-04-24T07:57:28;4.77;;;2.50;;
15155;SDS011;7678;50.058;8.306;2023-04-24T07:59:56;5.50;;;2.80;;
15155;SDS011;7678;50.058;8.306;2023-04-24T08:02:25;4.03;;;2.73;;
15155;SDS011;7678;50.058;8.306;2023-04-24T08:04:54;3.63;;;2.57;;
15155;SDS011;7678;50.058;8.306;2023-04-24T08:07:25;4.77;;;2.77;;
15155;SDS011;7678;50.058;8.306;2023-04-24T08:09:53;3.63;;;2.60;;
15155;SDS011;7678;50.058;8.306;2023-04-24T08:12:21;3.90;;;2.87;;
15155;SDS011;7678;50.058;8.306;2023-04-24T08:14:50;3.70;;;2.70;;
15155;SDS011;7678;50.058;8.306;2023-04-24T08:17:18;6.40;;;2.53;;
15155;SDS011;7678;50.058;8.306;2023-04-24T08:19:48;2.87;;;2.27;;
15155;SDS011;7678;50.058;8.306;2023-04-24T08:22:17;7.33;;;2.70;;
15155;SDS011;7678;50.058;8.306;2023-04-24T08:24:45;3.33;;;2.53;;
15155;SDS011;7678;50.058;8.306;2023-04-24T08:27:13;3.10;;;2.53;;
15155;SDS011;7678;50.058;8.306;2023-04-24T08:29:42;6.20;;;2.97;;
15155;SDS011;7678;50.058;8.306;2023-04-24T08:32:10;3.70;;;2.53;;
15155;SDS011;7678;50.058;8.306;2023-04-24T08:34:39;3.20;;;2.50;;
15155;SDS011;7678;50.058;8.306;2023-04-24T08:37:08;4.20;;;2.90;;
15155;SDS011;7678;50.058;8.306;2023-04-24T08:39:36;3.07;;;2.57;;
15155;SDS011;7678;50.058;8.306;2023-04-24T08:42:04;4.70;;;2.40;;
15155;SDS011;7678;50.058;8.306;2023-04-24T08:44:34;5.60;;;2.80;;
15155;SDS011;7678;50.058;8.306;2023-04-24T08:47:03;2.53;;;2.30;;
15155;SDS011;7678;50.058;8.306;2023-04-24T08:49:32;4.03;;;2.63;;
15155;SDS011;7678;50.058;8.306;2023-04-24T08:52:01;5.17;;;2.63;;
15155;SDS011;7678;50.058;8.306;2023-04-24T08:54:31;3.00;;;2.50;;
15155;SDS011;7678;50.058;8.306;2023-04-24T08:56:59;8.30;;;3.30;;
15155;SDS011;7678;50.058;8.306;2023-04-24T08:59:29;4.97;;;2.53;;
15155;SDS011;7678;50.058;8.306;2023-04-24T09:01:58;7.83;;;2.60;;
15155;SDS011;7678;50.058;8.306;2023-04-24T09:04:27;4.73;;;2.13;;
15155;SDS011;7678;50.058;8.306;2023-04-24T09:06:57;6.00;;;2.53;;
15155;SDS011;7678;50.058;8.306;2023-04-24T09:09:25;8.60;;;2.40;;
15155;SDS011;7678;50.058;8.306;2023-04-24T09:11:58;4.87;;;2.33;;
15155;SDS011;7678;50.058;8.306;2023-04-24T09:14:26;2.67;;;2.27;;
15155;SDS011;7678;50.058;8.306;2023-04-24T09:16:57;5.77;;;2.47;;
15155;SDS011;7678;50.058;8.306;2023-04-24T09:19:25;3.33;;;2.40;;
15155;SDS011;7678;50.058;8.306;2023-04-24T09:21:53;4.57;;;2.40;;
15155;SDS011;7678;50.058;8.306;2023-04-24T09:24:21;4.97;;;2.47;;
15155;SDS011;7678;50.058;8.306;2023-04-24T09:26:55;2.93;;;2.37;;
15155;SDS011;7678;50.058;8.306;2023-04-24T09:29:27;4.00;;;2.40;;
15155;SDS011;7678;50.058;8.306;2023-04-24T09:31:55;4.53;;;1.90;;
15155;SDS011;7678;50.058;8.306;2023-04-24T09:34:24;3.10;;;1.93;;
15155;SDS011;7678;50.058;8.306;2023-04-24T09:36:53;5.90;;;2.40;;
15155;SDS011;7678;50.058;8.306;2023-04-24T09:39:21;3.83;;;2.13;;
15155;SDS011;7678;50.058;8.306;2023-04-24T09:41:50;3.87;;;2.20;;
15155;SDS011;7678;50.058;8.306;2023-04-24T09:44:20;4.60;;;2.40;;
15155;SDS011;7678;50.058;8.306;2023-04-24T09:46:50;5.60;;;1.97;;
15155;SDS011;7678;50.058;8.306;2023-04-24T09:49:21;6.00;;;2.07;;
15155;SDS011;7678;50.058;8.306;2023-04-24T09:51:51;5.43;;;2.03;;
15155;SDS011;7678;50.058;8.306;2023-04-24T09:54:20;4.97;;;1.80;;
15155;SDS011;7678;50.058;8.306;2023-04-24T09:56:49;4.30;;;1.80;;
15155;SDS011;7678;50.058;8.306;2023-04-24T09:59:18;4.00;;;1.90;;
15155;SDS011;7678;50.058;8.306;2023-04-24T10:01:48;3.57;;;1.87;;
15155;SDS011;7678;50.058;8.306;2023-04-24T10:04:19;3.60;;;1.67;;
15155;SDS011;7678;50.058;8.306;2023-04-24T10:06:48;2.20;;;1.87;;
15155;SDS011;7678;50.058;8.306;2023-04-24T10:09:18;2.83;;;2.00;;
15155;SDS011;7678;50.058;8.306;2023-04-24T10:11:48;3.07;;;2.00;;
15155;SDS011;7678;50.058;8.306;2023-04-24T10:14:18;2.13;;;1.93;;
15155;SDS011;7678;50.058;8.306;2023-04-24T10:16:49;2.30;;;1.97;;
15155;SDS011;7678;50.058;8.306;2023-04-24T10:19:18;2.60;;;2.10;;
15155;SDS011;7678;50.058;8.306;2023-04-24T10:21:46;2.67;;;2.00;;
15155;SDS011;7678;50.058;8.306;2023-04-24T10:24:15;2.90;;;2.07;;
15155;SDS011;7678;50.058;8.306;2023-04-24T10:26:44;2.90;;;2.13;;
15155;SDS011;7678;50.058;8.306;2023-04-24T10:29:15;7.90;;;2.60;;
15155;SDS011;7678;50.058;8.306;2023-04-24T10:31:46;3.57;;;1.90;;
15155;SDS011;7678;50.058;8.306;2023-04-24T10:34:15;25.87;;;10.80;;
15155;SDS011;7678;50.058;8.306;2023-04-24T10:36:45;4.90;;;2.77;;
15155;SDS011;7678;50.058;8.306;2023-04-24T10:39:20;7.07;;;2.40;;
15155;SDS011;7678;50.058;8.306;2023-04-24T10:41:53;4.40;;;1.90;;
15155;SDS011;7678;50.058;8.306;2023-04-24T10:44:24;1.63;;;1.50;;
15155;SDS011;7678;50.058;8.306;2023-04-24T10:47:04;3.07;;;2.20;;
15155;SDS011;7678;50.058;8.306;2023-04-24T10:49:32;2.50;;;1.57;;
15155;SDS011;7678;50.058;8.306;2023-04-24T10:52:01;3.30;;;1.37;;
15155;SDS011;7678;50.058;8.306;2023-04-24T10:54:34;1.63;;;1.40;;
15155;SDS011;7678;50.058;8.306;2023-04-24T11:00:13;2.47;;;1.43;;
15155;SDS011;7678;50.058;8.306;2023-04-24T11:02:50;1.67;;;1.20;;
15155;SDS011;7678;50.058;8.306;2023-04-24T11:05:21;1.63;;;1.40;;
15155;SDS011;7678;50.058;8.306;2023-04-24T11:08:12;3.53;;;1.50;;
15155;SDS011;7678;50.058;8.306;2023-04-24T11:10:45;2.50;;;1.43;;
15155;SDS011;7678;50.058;8.306;2023-04-24T11:13:14;3.80;;;1.73;;
15155;SDS011;7678;50.058;8.306;2023-04-24T11:15:43;2.73;;;1.77;;
15155;SDS011;7678;50.058;8.306;2023-04-24T11:18:16;3.07;;;1.83;;
15155;SDS011;7678;50.058;8.306;2023-04-24T11:20:44;1.83;;;1.67;;
15155;SDS011;7678;50.058;8.306;2023-04-24T11:23:14;1.67;;;1.57;;
15155;SDS011;7678;50.058;8.306;2023-04-24T11:25:45;4.43;;;2.23;;
15155;SDS011;7678;50.058;8.306;2023-04-24T11:28:46;8.13;;;3.10;;
15155;SDS011;7678;50.058;8.306;2023-04-24T11:34:11;2.87;;;1.80;;
15155;SDS011;7678;50.058;8.306;2023-04-24T11:36:42;3.10;;;2.00;;
15155;SDS011;7678;50.058;8.306;2023-04-24T11:39:13;4.73;;;2.20;;
15155;SDS011;7678;50.058;8.306;2023-04-24T11:41:41;2.40;;;1.63;;
15155;SDS011;7678;50.058;8.306;2023-04-24T11:44:10;5.40;;;1.93;;
15155;SDS011;7678;50.058;8.306;2023-04-24T11:46:39;3.60;;;1.70;;
15155;SDS011;7678;50.058;8.306;2023-04-24T11:49:08;3.87;;;1.77;;
15155;SDS011;7678;50.058;8.306;2023-04-24T11:51:38;3.90;;;1.77;;
15155;SDS011;7678;50.058;8.306;2023-04-24T11:54:19;3.43;;;2.23;;
15155;SDS011;7678;50.058;8.306;2023-04-24T11:56:47;2.63;;;2.20;;
15155;SDS011;7678;50.058;8.306;2023-04-24T11:59:16;2.80;;;2.60;;
15155;SDS011;7678;50.058;8.306;2023-04-24T12:01:45;2.67;;;2.47;;
15155;SDS011;7678;50.058;8.306;2023-04-24T12:04:15;1.90;;;1.80;;
15155;SDS011;7678;50.058;8.306;2023-04-24T12:09:41;5.17;;;2.93;;
15155;SDS011;7678;50.058;8.306;2023-04-24T12:12:14;5.47;;;3.13;;
15155;SDS011;7678;50.058;8.306;2023-04-24T12:14:43;3.77;;;3.10;;
15155;SDS011;7678;50.058;8.306;2023-04-24T12:17:12;7.17;;;3.70;;
15155;SDS011;7678;50.058;8.306;2023-04-24T12:19:44;4.07;;;3.50;;
15155;SDS011;7678;50.058;8.306;2023-04-24T12:22:16;5.47;;;3.17;;
15155;SDS011;7678;50.058;8.306;2023-04-24T12:24:57;3.87;;;3.50;;
15155;SDS011;7678;50.058;8.306;2023-04-24T12:27:30;3.90;;;3.50;;
15155;SDS011;7678;50.058;8.306;2023-04-24T12:30:01;4.73;;;3.80;;
15155;SDS011;7678;50.058;8.306;2023-04-24T12:32:32;5.07;;;3.57;;
15155;SDS011;7678;50.058;8.306;2023-04-24T12:35:04;5.10;;;3.90;;
15155;SDS011;7678;50.058;8.306;2023-04-24T12:37:34;4.60;;;3.37;;
15155;SDS011;7678;50.058;8.306;2023-04-24T12:40:04;4.97;;;3.60;;
15155;SDS011;7678;50.058;8.306;2023-04-24T12:42:35;4.33;;;3.37;;
15155;SDS011;7678;50.058;8.306;2023-04-24T12:45:09;4.87;;;3.37;;
15155;SDS011;7678;50.058;8.306;2023-04-24T12:47:39;4.97;;;2.83;;
15155;SDS011;7678;50.058;8.306;2023-04-24T12:50:08;3.53;;;3.10;;
15155;SDS011;7678;50.058;8.306;2023-04-24T12:52:39;5.10;;;3.47;;
15155;SDS011;7678;50.058;8.306;2023-04-24T12:55:08;4.77;;;2.90;;
15155;SDS011;7678;50.058;8.306;2023-04-24T12:57:38;3.93;;;2.80;;
15155;SDS011;7678;50.058;8.306;2023-04-24T13:00:07;4.00;;;2.87;;
15155;SDS011;7678;50.058;8.306;2023-04-24T13:02:36;5.50;;;3.13;;
15155;SDS011;7678;50.058;8.306;2023-04-24T13:05:08;6.77;;;3.17;;
15155;SDS011;7678;50.058;8.306;2023-04-24T13:07:38;5.23;;;3.20;;
15155;SDS011;7678;50.058;8.306;2023-04-24T13:10:08;3.13;;;2.80;;
15155;SDS011;7678;50.058;8.306;2023-04-24T13:12:37;4.43;;;2.47;;
15155;SDS011;7678;50.058;8.306;2023-04-24T13:15:06;5.17;;;3.07;;
15155;SDS011;7678;50.058;8.306;2023-04-24T13:17:35;6.20;;;2.97;;
15155;SDS011;7678;50.058;8.306;2023-04-24T13:20:04;4.10;;;2.60;;
15155;SDS011;7678;50.058;8.306;2023-04-24T13:22:33;5.07;;;3.00;;
15155;SDS011;7678;50.058;8.306;2023-04-24T13:25:05;7.00;;;3.00;;
15155;SDS011;7678;50.058;8.306;2023-04-24T13:27:35;7.23;;;2.87;;
15155;SDS011;7678;50.058;8.306;2023-04-24T13:30:05;8.67;;;3.00;;
15155;SDS011;7678;50.058;8.306;2023-04-24T13:32:34;4.37;;;2.40;;
15155;SDS011;7678;50.058;8.306;2023-04-24T13:35:03;6.03;;;2.43;;
15155;SDS011;7678;50.058;8.306;2023-04-24T13:37:31;4.20;;;2.60;;
15155;SDS011;7678;50.058;8.306;2023-04-24T13:40:00;3.23;;;2.50;;
15155;SDS011;7678;50.058;8.306;2023-04-24T13:42:32;4.20;;;2.50;;
15155;SDS011;7678;50.058;8.306;2023-04-24T13:45:03;6.03;;;2.80;;
15155;SDS011;7678;50.058;8.306;2023-04-24T13:47:49;4.83;;;3.10;;
15155;SDS011;7678;50.058;8.306;2023-04-24T13:50:20;5.73;;;2.97;;
15155;SDS011;7678;50.058;8.306;2023-04-24T13:52:49;5.63;;;2.70;;
15155;SDS011;7678;50.058;8.306;2023-04-24T13:55:17;4.77;;;3.00;;
15155;SDS011;7678;50.058;8.306;2023-04-24T13:57:46;4.67;;;3.00;;
15155;SDS011;7678;50.058;8.306;2023-04-24T14:00:14;5.27;;;3.07;;
15155;SDS011;7678;50.058;8.306;2023-04-24T14:02:46;3.93;;;2.77;;
15155;SDS011;7678;50.058;8.306;2023-04-24T14:05:14;3.40;;;2.60;;
15155;SDS011;7678;50.058;8.306;2023-04-24T14:07:45;4.93;;;2.80;;
15155;SDS011;7678;50.058;8.306;2023-04-24T14:10:20;3.67;;;2.63;;
15155;SDS011;7678;50.058;8.306;2023-04-24T14:13:06;5.23;;;2.87;;
15155;SDS011;7678;50.058;8.306;2023-04-24T14:15:36;5.43;;;3.10;;
15155;SDS011;7678;50.058;8.306;2023-04-24T14:18:05;5.10;;;2.90;;
15155;SDS011;7678;50.058;8.306;2023-04-24T14:20:34;5.20;;;2.80;;
15155;SDS011;7678;50.058;8.306;2023-04-24T14:23:04;4.37;;;2.83;;
15155;SDS011;7678;50.058;8.306;2023-04-24T14:25:32;4.73;;;2.70;;
15155;SDS011;7678;50.058;8.306;2023-04-24T14:28:01;4.30;;;2.90;;
15155;SDS011;7678;50.058;8.306;2023-04-24T14:30:31;8.10;;;3.10;;
15155;SDS011;7678;50.058;8.306;2023-04-24T14:33:00;6.13;;;3.10;;
15155;SDS011;7678;50.058;8.306;2023-04-24T14:35:29;3.73;;;2.70;;
15155;SDS011;7678;50.058;8.306;2023-04-24T14:38:00;3.63;;;2.57;;
15155;SDS011;7678;50.058;8.306;2023-04-24T14:40:28;4.03;;;2.80;;
15155;SDS011;7678;50.058;8.306;2023-04-24T14:43:18;6.40;;;2.70;;
15155;SDS011;7678;50.058;8.306;2023-04-24T14:45:48;5.60;;;2.63;;
15155;SDS011;7678;50.058;8.306;2023-04-24T14:48:16;4.17;;;2.70;;
15155;SDS011;7678;50.058;8.306;2023-04-24T14:50:44;5.13;;;2.90;;
15155;SDS011;7678;50.058;8.306;2023-04-24T14:53:12;3.57;;;2.77;;
15155;SDS011;7678;50.058;8.306;2023-04-24T14:55:42;4.53;;;2.50;;
15155;SDS011;7678;50.058;8.306;2023-04-24T14:58:10;5.57;;;2.77;;
15155;SDS011;7678;50.058;8.306;2023-04-24T15:00:41;3.83;;;2.80;;
15155;SDS011;7678;50.058;8.306;2023-04-24T15:03:11;5.33;;;2.60;;
15155;SDS011;7678;50.058;8.306;2023-04-24T15:05:40;4.43;;;2.83;;
15155;SDS011;7678;50.058;8.306;2023-04-24T15:08:22;3.60;;;2.63;;
15155;SDS011;7678;50.058;8.306;2023-04-24T15:10:50;5.63;;;2.97;;
15155;SDS011;7678;50.058;8.306;2023-04-24T15:13:18;3.67;;;2.60;;
15155;SDS011;7678;50.058;8.306;2023-04-24T15:15:46;5.80;;;3.37;;
15155;SDS011;7678;50.058;8.306;2023-04-24T15:18:16;3.70;;;2.83;;
15155;SDS011;7678;50.058;8.306;2023-04-24T15:20:44;5.33;;;2.90;;
15155;SDS011;7678;50.058;8.306;2023-04-24T15:23:12;4.67;;;2.70;;